Fort Pike — WAA9418 — position and weather

sailwx.info

Track history (hours):
 
Tides and Currents Weather Stations Pressure Air Temp Water Temp Dewpoint Dewpoint Depression Visibility Wind Speed Wind Dir Waves Ship Positions

Fort Pike

Owner: Salisbury Towing Corporation, Chesapeak, VA. More information available from US FCC via Universal Licensing System and Coast Guard Vessel Documentation Center.

Last reported at 2016-Jun-28 01:33 UTC. Time now 2016-Jun-28 22:32 UTC.
Position N 38°55' W 076°25'.

Length 18 m; draft 10.5 m.

Type: Tug. MMSI: 366948310.

Date/timePositionNaut miles runAvg speedWind from/ knotsBaromVisibWave heightAir tempDewpointWater temp
2016-Jun-28 01:33N 38°55' W 076°25'26 6.3
2016-Jun-27 21:28N 39°19' W 076°12'6 6.6
2016-Jun-27 20:30N 39°23' W 076°06'5 5.0
2016-Jun-27 19:33N 39°27' W 076°02'5 5.0
2016-Jun-27 18:33N 39°32' W 076°05'3 2.8
2016-Jun-27 17:33N 39°34' W 076°06'0 0.2
2016-Jun-27 16:25N 39°34' W 076°06'0 0.0
2016-Jun-27 15:28N 39°34' W 076°06'0 0.0
2016-Jun-27 14:31N 39°34' W 076°06'0 0.0
2016-Jun-27 13:30N 39°34' W 076°06'0 0.0
2016-Jun-27 12:33N 39°34' W 076°06'0 0.0
2016-Jun-27 11:33N 39°34' W 076°06'0 0.0
2016-Jun-27 10:13N 39°34' W 076°06'0 0.0
2016-Jun-27 09:27N 39°34' W 076°06'0 0.0
2016-Jun-27 08:27N 39°34' W 076°06'0 0.0
2016-Jun-27 07:10N 39°34' W 076°06'0 0.0
2016-Jun-27 06:25N 39°34' W 076°06'0 0.0
2016-Jun-27 04:31N 39°34' W 076°06'0 0.0
2016-Jun-27 03:27N 39°34' W 076°06'6 6.2
2016-Jun-27 02:33N 39°29' W 076°05'6 4.7
2016-Jun-27 01:19N 39°23' W 076°06'18 6.6
2016-Jun-26 22:32N 39°12' W 076°24'8 6.8
2016-Jun-26 21:25N 39°14' W 076°33'2 2.6
2016-Jun-26 20:33N 39°15' W 076°36'1 0.5
2016-Jun-26 19:16N 39°15' W 076°36'4 5.4
2016-Jun-26 18:32N 39°13' W 076°31'32 6.0
2016-Jun-26 13:11N 38°41' W 076°28'4 6.7
2016-Jun-26 12:31N 38°36' W 076°27'15 6.8
2016-Jun-26 10:21N 38°22' W 076°21'14 6.2
2016-Jun-26 08:07N 38°12' W 076°09'5 5.6
2016-Jun-26 07:13N 38°13' W 076°03'3 4.2
2016-Jun-26 06:33N 38°13' W 075°59'5 4.5
2016-Jun-26 05:33N 38°16' W 075°56'6 5.7
2016-Jun-26 04:33N 38°21' W 075°52'5 4.8
2016-Jun-26 03:33N 38°25' W 075°50'4 4.1
2016-Jun-26 02:33N 38°29' W 075°48'5 5.0
2016-Jun-26 01:32N 38°33' W 075°43'41 1.9
2016-Jun-25 03:12N 39°00' W 076°23'9 5.6
2016-Jun-25 01:33N 39°10' W 076°25'6 5.6
2016-Jun-25 00:33N 39°13' W 076°31'4 4.4
2016-Jun-24 23:34N 39°15' W 076°36'1 0.6
2016-Jun-24 22:28N 39°15' W 076°36'1 1.4
2016-Jun-24 21:33N 39°15' W 076°34'4 4.4
2016-Jun-24 20:33N 39°12' W 076°31'15 4.2
2016-Jun-24 17:03N 39°18' W 076°13'2 4.3
2016-Jun-24 16:32N 39°20' W 076°12'4 4.1
2016-Jun-24 15:33N 39°22' W 076°08'3 3.4
2016-Jun-24 14:33N 39°24' W 076°04'3 3.1
2016-Jun-24 13:33N 39°27' W 076°02'3 3.3
2016-Jun-24 12:33N 39°29' W 076°05'4 3.5
2016-Jun-24 11:33N 39°33' W 076°05'2 2.0
2016-Jun-24 10:32N 39°34' W 076°06'0 0.0
2016-Jun-24 09:29N 39°34' W 076°06'1 0.6
2016-Jun-24 08:31N 39°34' W 076°06'6 6.2
2016-Jun-24 07:33N 39°28' W 076°03'5 5.5
2016-Jun-24 06:33N 39°23' W 076°06'17 7.1
2016-Jun-24 04:10N 39°12' W 076°23'4 7.1
2016-Jun-24 03:33N 39°11' W 076°28'7 6.8
2016-Jun-24 02:33N 39°15' W 076°36'0 0.5
2016-Jun-24 01:32N 39°15' W 076°36'3 3.3
2016-Jun-24 00:33N 39°14' W 076°32'6 6.3
2016-Jun-23 23:33N 39°10' W 076°26'6 6.3
2016-Jun-23 22:34N 39°04' W 076°23'7 6.4
2016-Jun-23 21:28N 38°57' W 076°24'45 4.1
2016-Jun-23 10:34N 38°18' W 075°56'5 5.0
2016-Jun-23 09:28N 38°22' W 075°51'39 1.7
2016-Jun-22 10:21N 38°50' W 076°27'10 5.5
2016-Jun-22 08:31N 38°59' W 076°23'6 6.0
2016-Jun-22 07:33N 39°05' W 076°21'7 6.2
2016-Jun-22 06:30N 39°11' W 076°18'7 6.4
2016-Jun-22 05:29N 39°16' W 076°14'6 6.4
2016-Jun-22 04:33N 39°21' W 076°10'6 5.7
2016-Jun-22 03:33N 39°24' W 076°03'4 4.3
2016-Jun-22 02:33N 39°29' W 076°04'4 4.0
2016-Jun-22 01:33N 39°33' W 076°04'2 1.9
2016-Jun-22 00:25N 39°34' W 076°06'0 0.0
2016-Jun-21 23:22N 39°34' W 076°06'0 0.2
2016-Jun-21 22:31N 39°34' W 076°06'6 6.2
2016-Jun-21 21:33N 39°29' W 076°04'6 5.6
2016-Jun-21 20:33N 39°23' W 076°06'19 6.3
2016-Jun-21 17:31N 39°11' W 076°25'7 7.4
2016-Jun-21 16:33N 39°13' W 076°34'0 0.1
2016-Jun-21 14:15N 39°14' W 076°34'0 0.5
2016-Jun-21 13:22N 39°13' W 076°34'0 0.0
2016-Jun-21 12:32N 39°13' W 076°34'3 0.8
2016-Jun-21 08:33N 39°12' W 076°30'10 7.6
2016-Jun-21 07:14N 39°04' W 076°23'54 2.9
2016-Jun-20 12:32N 38°18' W 075°46'2 0.4
2016-Jun-20 06:08N 38°20' W 075°44'2 3.3
2016-Jun-20 05:33N 38°18' W 075°46'5 4.6
2016-Jun-20 04:33N 38°15' W 075°50'5 5.1
2016-Jun-20 03:33N 38°12' W 075°56'1 0.8
2016-Jun-20 02:26N 38°13' W 075°57'1 0.1
2016-Jun-19 08:33N 38°13' W 075°58'0 0.2
2016-Jun-19 06:25N 38°13' W 075°59'3 3.0
2016-Jun-19 05:22N 38°13' W 076°03'5 4.1
2016-Jun-19 04:10N 38°12' W 076°09'47 4.4
2016-Jun-18 17:34N 38°58' W 076°24'6 5.8
2016-Jun-18 16:34N 39°03' W 076°22'11 5.4
2016-Jun-18 14:30N 39°13' W 076°15'5 5.0
2016-Jun-18 13:31N 39°18' W 076°13'5 4.3
2016-Jun-18 12:24N 39°22' W 076°09'3 3.8
2016-Jun-18 11:34N 39°23' W 076°06'3 3.3
2016-Jun-18 10:33N 39°25' W 076°02'3 3.1
2016-Jun-18 09:33N 39°28' W 076°03'3 2.9
2016-Jun-18 08:27N 39°31' W 076°05'2 1.8
2016-Jun-18 07:30N 39°33' W 076°04'2 2.0
2016-Jun-18 06:33N 39°34' W 076°06'4 4.1
2016-Jun-18 05:28N 39°30' W 076°05'6 5.4
2016-Jun-18 04:24N 39°24' W 076°04'5 6.2
2016-Jun-18 03:33N 39°21' W 076°10'9 6.2
2016-Jun-18 02:10N 39°14' W 076°15'  
Track history (hours):
 
Tides and Currents Weather Stations Pressure Air Temp Water Temp Dewpoint Dewpoint Depression Visibility Wind Speed Wind Dir Waves Ship Positions

Fort Pike

Owner: Salisbury Towing Corporation, Chesapeak, VA. More information available from US FCC via Universal Licensing System and Coast Guard Vessel Documentation Center.

Last reported at 2016-Jun-28 01:33 UTC. Time now 2016-Jun-28 22:32 UTC.
Position N 38°55' W 076°25'.

Length 18 m; draft 10.5 m.

Type: Tug. MMSI: 366948310.

Date/timePositionNaut miles runAvg speedWind from/ knotsBaromVisibWave heightAir tempDewpointWater temp
2016-Jun-28 01:33N 38°55' W 076°25'26 6.3
2016-Jun-27 21:28N 39°19' W 076°12'6 6.6
2016-Jun-27 20:30N 39°23' W 076°06'5 5.0
2016-Jun-27 19:33N 39°27' W 076°02'5 5.0
2016-Jun-27 18:33N 39°32' W 076°05'3 2.8
2016-Jun-27 17:33N 39°34' W 076°06'0 0.2
2016-Jun-27 16:25N 39°34' W 076°06'0 0.0
2016-Jun-27 15:28N 39°34' W 076°06'0 0.0
2016-Jun-27 14:31N 39°34' W 076°06'0 0.0
2016-Jun-27 13:30N 39°34' W 076°06'0 0.0
2016-Jun-27 12:33N 39°34' W 076°06'0 0.0
2016-Jun-27 11:33N 39°34' W 076°06'0 0.0
2016-Jun-27 10:13N 39°34' W 076°06'0 0.0
2016-Jun-27 09:27N 39°34' W 076°06'0 0.0
2016-Jun-27 08:27N 39°34' W 076°06'0 0.0
2016-Jun-27 07:10N 39°34' W 076°06'0 0.0
2016-Jun-27 06:25N 39°34' W 076°06'0 0.0
2016-Jun-27 04:31N 39°34' W 076°06'0 0.0
2016-Jun-27 03:27N 39°34' W 076°06'6 6.2
2016-Jun-27 02:33N 39°29' W 076°05'6 4.7
2016-Jun-27 01:19N 39°23' W 076°06'18 6.6
2016-Jun-26 22:32N 39°12' W 076°24'8 6.8
2016-Jun-26 21:25N 39°14' W 076°33'2 2.6
2016-Jun-26 20:33N 39°15' W 076°36'1 0.5
2016-Jun-26 19:16N 39°15' W 076°36'4 5.4
2016-Jun-26 18:32N 39°13' W 076°31'32 6.0
2016-Jun-26 13:11N 38°41' W 076°28'4 6.7
2016-Jun-26 12:31N 38°36' W 076°27'15 6.8
2016-Jun-26 10:21N 38°22' W 076°21'14 6.2
2016-Jun-26 08:07N 38°12' W 076°09'5 5.6
2016-Jun-26 07:13N 38°13' W 076°03'3 4.2
2016-Jun-26 06:33N 38°13' W 075°59'5 4.5
2016-Jun-26 05:33N 38°16' W 075°56'6 5.7
2016-Jun-26 04:33N 38°21' W 075°52'5 4.8
2016-Jun-26 03:33N 38°25' W 075°50'4 4.1
2016-Jun-26 02:33N 38°29' W 075°48'5 5.0
2016-Jun-26 01:32N 38°33' W 075°43'41 1.9
2016-Jun-25 03:12N 39°00' W 076°23'9 5.6
2016-Jun-25 01:33N 39°10' W 076°25'6 5.6
2016-Jun-25 00:33N 39°13' W 076°31'4 4.4
2016-Jun-24 23:34N 39°15' W 076°36'1 0.6
2016-Jun-24 22:28N 39°15' W 076°36'1 1.4
2016-Jun-24 21:33N 39°15' W 076°34'4 4.4
2016-Jun-24 20:33N 39°12' W 076°31'15 4.2
2016-Jun-24 17:03N 39°18' W 076°13'2 4.3
2016-Jun-24 16:32N 39°20' W 076°12'4 4.1
2016-Jun-24 15:33N 39°22' W 076°08'3 3.4
2016-Jun-24 14:33N 39°24' W 076°04'3 3.1
2016-Jun-24 13:33N 39°27' W 076°02'3 3.3
2016-Jun-24 12:33N 39°29' W 076°05'4 3.5
2016-Jun-24 11:33N 39°33' W 076°05'2 2.0
2016-Jun-24 10:32N 39°34' W 076°06'0 0.0
2016-Jun-24 09:29N 39°34' W 076°06'1 0.6
2016-Jun-24 08:31N 39°34' W 076°06'6 6.2
2016-Jun-24 07:33N 39°28' W 076°03'5 5.5
2016-Jun-24 06:33N 39°23' W 076°06'17 7.1
2016-Jun-24 04:10N 39°12' W 076°23'4 7.1
2016-Jun-24 03:33N 39°11' W 076°28'7 6.8
2016-Jun-24 02:33N 39°15' W 076°36'0 0.5
2016-Jun-24 01:32N 39°15' W 076°36'3 3.3
2016-Jun-24 00:33N 39°14' W 076°32'6 6.3
2016-Jun-23 23:33N 39°10' W 076°26'6 6.3
2016-Jun-23 22:34N 39°04' W 076°23'7 6.4
2016-Jun-23 21:28N 38°57' W 076°24'45 4.1
2016-Jun-23 10:34N 38°18' W 075°56'5 5.0
2016-Jun-23 09:28N 38°22' W 075°51'39 1.7
2016-Jun-22 10:21N 38°50' W 076°27'10 5.5
2016-Jun-22 08:31N 38°59' W 076°23'6 6.0
2016-Jun-22 07:33N 39°05' W 076°21'7 6.2
2016-Jun-22 06:30N 39°11' W 076°18'7 6.4
2016-Jun-22 05:29N 39°16' W 076°14'6 6.4
2016-Jun-22 04:33N 39°21' W 076°10'6 5.7
2016-Jun-22 03:33N 39°24' W 076°03'4 4.3
2016-Jun-22 02:33N 39°29' W 076°04'4 4.0
2016-Jun-22 01:33N 39°33' W 076°04'2 1.9
2016-Jun-22 00:25N 39°34' W 076°06'0 0.0
2016-Jun-21 23:22N 39°34' W 076°06'0 0.2
2016-Jun-21 22:31N 39°34' W 076°06'6 6.2
2016-Jun-21 21:33N 39°29' W 076°04'6 5.6
2016-Jun-21 20:33N 39°23' W 076°06'19 6.3
2016-Jun-21 17:31N 39°11' W 076°25'7 7.4
2016-Jun-21 16:33N 39°13' W 076°34'0 0.1
2016-Jun-21 14:15N 39°14' W 076°34'0 0.5
2016-Jun-21 13:22N 39°13' W 076°34'0 0.0
2016-Jun-21 12:32N 39°13' W 076°34'3 0.8
2016-Jun-21 08:33N 39°12' W 076°30'10 7.6
2016-Jun-21 07:14N 39°04' W 076°23'54 2.9
2016-Jun-20 12:32N 38°18' W 075°46'2 0.4
2016-Jun-20 06:08N 38°20' W 075°44'2 3.3
2016-Jun-20 05:33N 38°18' W 075°46'5 4.6
2016-Jun-20 04:33N 38°15' W 075°50'5 5.1
2016-Jun-20 03:33N 38°12' W 075°56'1 0.8
2016-Jun-20 02:26N 38°13' W 075°57'1 0.1
2016-Jun-19 08:33N 38°13' W 075°58'0 0.2
2016-Jun-19 06:25N 38°13' W 075°59'3 3.0
2016-Jun-19 05:22N 38°13' W 076°03'5 4.1
2016-Jun-19 04:10N 38°12' W 076°09'47 4.4
2016-Jun-18 17:34N 38°58' W 076°24'6 5.8
2016-Jun-18 16:34N 39°03' W 076°22'11 5.4
2016-Jun-18 14:30N 39°13' W 076°15'5 5.0
2016-Jun-18 13:31N 39°18' W 076°13'5 4.3
2016-Jun-18 12:24N 39°22' W 076°09'3 3.8
2016-Jun-18 11:34N 39°23' W 076°06'3 3.3
2016-Jun-18 10:33N 39°25' W 076°02'3 3.1
2016-Jun-18 09:33N 39°28' W 076°03'3 2.9
2016-Jun-18 08:27N 39°31' W 076°05'2 1.8
2016-Jun-18 07:30N 39°33' W 076°04'2 2.0
2016-Jun-18 06:33N 39°34' W 076°06'4 4.1
2016-Jun-18 05:28N 39°30' W 076°05'6 5.4
2016-Jun-18 04:24N 39°24' W 076°04'5 6.2
2016-Jun-18 03:33N 39°21' W 076°10'9 6.2
2016-Jun-18 02:10N 39°14' W 076°15'  

Dump ship's entire track history